DAUH/HME METAR and TAF weather

Enter ICAO airport designator
Station Type Date Time Source
DAUH METAR 2018/01/21 12:00 UTC NOAA

DAUH 211200Z 23006KT 8000 FEW040 18/04 Q1023


Station Type Date Time Source
DAUH Decoded METAR 2018/01/21 12:00 UTC NOAA

Hassi-Messaoud, Algeria (DAUH) 31-40N 006-09E 142M
Jan 21, 2018 - 07:00 AM EST / 2018.01.21 1200 UTC
Wind: from the SW (230 degrees) at 7 MPH (6 KT):0
Visibility: 4 mile(s):0
Sky conditions: mostly clear
Temperature: 64 F (18 C)
Dew Point: 39 F (4 C)
Relative Humidity: 39%
Pressure (altimeter): 30.21 in. Hg (1023 hPa)
ob: DAUH 211200Z 23006KT 8000 FEW040 18/04 Q1023
cycle: 12

Station Type Date Time Source
DAUH TAF 2018/01/21 12:40 UTC NOAA

TAF DAUH 211100Z 2112/2212 26008KT 8000 FEW040


Example: see airport list